Time;durP1;ratioP1;P1;durP2;ratioP2;P2;SDS_P1;SDS_P2;PMS_P1;PMS_P2;Temp;Humidity;BMP_temperature;BMP_pressure;BME280_temperature;BME280_humidity;BME280_pressure;Samples;Min_cycle;Max_cycle;Signal;HPM_P1;HPM_P2
2021/10/24 00:01:48;;;;;;;20.27;12.83;;;;;;;4.02;78.17;101587.75;5065687;28;20543;-76
2021/10/24 00:04:15;;;;;;;18.77;12.97;;;;;;;3.95;78.16;101595.06;5075130;28;20476;-74
2021/10/24 00:06:41;;;;;;;20.67;14.67;;;;;;;3.90;78.38;101589.13;5076527;28;20587;-75
2021/10/24 00:09:08;;;;;;;18.77;12.97;;;;;;;3.93;78.35;101583.69;5079745;28;20910;-76
2021/10/24 00:11:35;;;;;;;18.97;12.90;;;;;;;3.92;78.26;101592.56;5065115;28;20680;-76
2021/10/24 00:14:06;;;;;;;19.40;12.33;;;;;;;4.00;77.76;101577.22;5061851;28;20511;-75
2021/10/24 00:16:33;;;;;;;15.37;12.20;;;;;;;3.87;78.35;101583.94;5058302;28;20476;-75
2021/10/24 00:18:59;;;;;;;17.97;14.03;;;;;;;3.82;78.81;101589.44;5071659;28;21269;-75
2021/10/24 00:21:26;;;;;;;21.77;15.50;;;;;;;3.79;78.68;101591.38;5064096;28;20512;-75
2021/10/24 00:23:52;;;;;;;18.63;13.30;;;;;;;3.79;79.07;101586.06;5062511;28;20453;-75
2021/10/24 00:26:19;;;;;;;21.83;13.60;;;;;;;3.86;78.72;101576.94;5069244;28;20499;-74
2021/10/24 00:28:46;;;;;;;20.20;14.43;;;;;;;3.80;78.89;101577.19;5082227;28;20504;-75
2021/10/24 00:31:14;;;;;;;17.20;14.03;;;;;;;3.82;78.68;101589.44;5072665;28;20487;-75
2021/10/24 00:33:40;;;;;;;17.63;12.77;;;;;;;3.76;78.21;101574.66;5081818;28;20444;-75
2021/10/24 00:36:07;;;;;;;16.37;13.73;;;;;;;3.77;78.21;101579.03;5084584;28;20558;-75
2021/10/24 00:38:33;;;;;;;16.80;12.97;;;;;;;3.69;78.28;101572.34;5070951;28;20517;-75
2021/10/24 00:41:00;;;;;;;18.90;13.23;;;;;;;3.68;78.29;101579.44;5069415;28;20648;-75
2021/10/24 00:43:27;;;;;;;15.87;12.10;;;;;;;3.64;78.63;101574.34;5085832;28;20435;-75
2021/10/24 00:45:53;;;;;;;17.47;13.40;;;;;;;3.64;78.81;101561.97;5079601;28;20566;-75
2021/10/24 00:48:21;;;;;;;14.80;12.40;;;;;;;3.66;78.75;101570.69;5074354;28;20480;-75
2021/10/24 00:50:48;;;;;;;16.93;12.50;;;;;;;3.66;78.62;101565.41;5075723;28;21028;-75
2021/10/24 00:53:15;;;;;;;14.53;11.93;;;;;;;3.71;78.36;101567.84;5065887;28;20481;-75
2021/10/24 00:55:42;;;;;;;16.60;12.77;;;;;;;3.67;78.27;101567.13;5067567;28;20463;-75
2021/10/24 00:58:09;;;;;;;14.30;11.80;;;;;;;3.64;78.37;101561.09;5074843;28;20508;-75
2021/10/24 01:00:36;;;;;;;17.93;12.03;;;;;;;3.69;78.45;101559.13;5077633;28;20551;-75
2021/10/24 01:03:03;;;;;;;14.17;12.70;;;;;;;3.70;78.09;101552.94;5077247;28;20491;-75
2021/10/24 01:05:33;;;;;;;22.83;12.37;;;;;;;3.58;78.06;101557.78;5084567;28;20475;-75
2021/10/24 01:08:00;;;;;;;16.63;11.13;;;;;;;3.52;78.33;101559.81;5084853;28;20532;-75
2021/10/24 01:10:27;;;;;;;16.17;12.20;;;;;;;3.59;78.31;101558.66;5083653;28;20496;-76
2021/10/24 01:12:53;;;;;;;18.47;13.47;;;;;;;3.41;78.56;101549.69;5075707;28;20504;-75
2021/10/24 01:15:21;;;;;;;17.30;12.70;;;;;;;3.44;78.78;101549.56;5072227;28;20487;-75
2021/10/24 01:17:48;;;;;;;20.40;12.17;;;;;;;3.49;79.02;101542.31;5084061;28;20452;-75
2021/10/24 01:20:17;;;;;;;17.33;13.30;;;;;;;3.46;79.45;101545.09;5084175;28;20479;-74
2021/10/24 01:22:45;;;;;;;19.33;12.07;;;;;;;3.49;78.58;101550.25;5084418;28;20444;-75
2021/10/24 01:25:12;;;;;;;16.40;12.60;;;;;;;3.48;79.00;101545.88;5076801;28;20517;-75
2021/10/24 01:27:39;;;;;;;17.50;13.07;;;;;;;3.47;79.23;101540.66;5065108;28;20551;-75
2021/10/24 01:30:07;;;;;;;18.93;12.50;;;;;;;3.47;79.64;101543.28;5065336;28;20459;-75
2021/10/24 01:32:34;;;;;;;22.87;12.37;;;;;;;3.50;80.05;101551.09;5065080;28;20499;-75
2021/10/24 01:35:00;;;;;;;18.40;11.90;;;;;;;3.48;80.26;101540.59;5065080;28;20880;-75
2021/10/24 01:37:32;;;;;;;18.03;12.17;;;;;;;3.46;80.47;101544.22;5068239;28;20926;-76
2021/10/24 01:40:01;;;;;;;15.37;12.13;;;;;;;3.40;80.67;101537.38;5079857;28;20468;-76
2021/10/24 01:42:28;;;;;;;17.00;11.57;;;;;;;3.41;80.25;101530.34;5075369;28;20523;-76
2021/10/24 01:44:55;;;;;;;17.13;11.33;;;;;;;3.35;80.37;101526.13;5066112;28;20469;-75
2021/10/24 01:47:21;;;;;;;20.70;12.20;;;;;;;3.32;80.41;101523.66;5063058;28;20551;-75
2021/10/24 01:49:48;;;;;;;17.80;12.10;;;;;;;3.38;80.42;101526.03;5064812;28;20898;-76
2021/10/24 01:52:15;;;;;;;19.10;12.23;;;;;;;3.41;79.80;101523.25;5063816;28;20507;-75
2021/10/24 01:54:42;;;;;;;18.33;11.40;;;;;;;3.43;79.75;101523.19;5064370;28;20445;-76
2021/10/24 01:57:10;;;;;;;15.90;12.03;;;;;;;3.54;79.28;101531.53;5075595;28;20491;-76
2021/10/24 01:59:37;;;;;;;16.47;11.17;;;;;;;3.45;79.10;101516.06;5064511;28;20429;-76
2021/10/24 02:02:03;;;;;;;16.17;11.63;;;;;;;3.47;78.64;101516.84;5079242;28;20482;-75
2021/10/24 02:04:30;;;;;;;18.47;11.13;;;;;;;3.42;78.51;101516.19;5084813;28;20467;-75
2021/10/24 02:06:56;;;;;;;15.87;11.17;;;;;;;3.39;78.27;101512.75;5068573;28;20533;-75
2021/10/24 02:09:23;;;;;;;15.90;10.93;;;;;;;3.46;78.13;101515.16;5083001;28;20519;-75
2021/10/24 02:11:50;;;;;;;14.10;10.63;;;;;;;3.45;78.25;101526.63;5073200;28;20975;-75
2021/10/24 02:14:18;;;;;;;15.73;11.37;;;;;;;3.44;78.05;101523.13;5083801;28;20511;-75
2021/10/24 02:16:44;;;;;;;21.80;10.70;;;;;;;3.42;78.31;101524.09;5080533;28;20579;-75
2021/10/24 02:19:11;;;;;;;13.13;9.83;;;;;;;3.42;77.99;101525.00;5083511;28;20475;-75
2021/10/24 02:21:38;;;;;;;16.30;11.30;;;;;;;3.36;78.24;101518.16;5071488;28;20480;-75
2021/10/24 02:24:05;;;;;;;15.37;10.90;;;;;;;3.30;77.99;101521.06;5064013;28;20488;-75
2021/10/24 02:26:31;;;;;;;15.77;11.10;;;;;;;3.19;78.40;101513.56;5072518;28;20488;-76
2021/10/24 02:28:58;;;;;;;20.93;11.80;;;;;;;3.19;78.37;101510.06;5063472;28;20909;-76
2021/10/24 02:31:27;;;;;;;21.10;11.13;;;;;;;3.17;78.36;101504.81;5072262;28;20501;-76
2021/10/24 02:33:53;;;;;;;12.10;9.97;;;;;;;3.23;78.56;101510.78;5064103;28;20439;-76
2021/10/24 02:36:20;;;;;;;12.50;11.00;;;;;;;3.22;78.57;101512.56;5077056;28;20475;-75
2021/10/24 02:38:46;;;;;;;14.03;10.50;;;;;;;3.12;78.88;101505.94;5070739;28;20502;-75
2021/10/24 02:41:13;;;;;;;22.37;13.27;;;;;;;2.99;80.03;101502.94;5075605;28;20501;-75
2021/10/24 02:43:40;;;;;;;15.53;11.00;;;;;;;2.96;80.77;101498.63;5082870;28;20460;-75
2021/10/24 02:46:06;;;;;;;19.50;11.57;;;;;;;2.91;80.66;101497.94;5075555;28;20463;-75
2021/10/24 02:48:34;;;;;;;17.83;12.20;;;;;;;2.95;80.05;101490.75;5073822;28;20515;-75
2021/10/24 02:51:01;;;;;;;17.57;12.73;;;;;;;2.99;80.11;101493.22;5081107;28;20792;-75
2021/10/24 02:53:28;;;;;;;15.17;12.00;;;;;;;2.98;80.10;101488.84;5071510;28;20471;-75
2021/10/24 02:55:54;;;;;;;17.93;12.43;;;;;;;3.00;80.06;101494.97;5080714;28;20998;-75
2021/10/24 02:58:21;;;;;;;13.80;11.73;;;;;;;2.99;79.69;101485.31;5081019;28;20454;-75
2021/10/24 03:00:47;;;;;;;16.10;11.67;;;;;;;3.01;79.43;101483.44;5080795;28;20578;-75
2021/10/24 03:03:14;;;;;;;16.37;11.67;;;;;;;3.00;79.36;101479.09;5070395;28;20437;-75
2021/10/24 03:05:42;;;;;;;18.13;12.43;;;;;;;3.03;79.40;101477.25;5062256;28;20533;-76
2021/10/24 03:08:08;;;;;;;15.60;11.30;;;;;;;3.07;79.09;101479.69;5068969;28;20448;-76
2021/10/24 03:10:35;;;;;;;16.90;11.13;;;;;;;3.11;78.63;101483.09;5069252;28;20540;-76
2021/10/24 03:13:04;;;;;;;14.63;11.20;;;;;;;3.06;79.08;101485.06;5062301;28;20520;-76
2021/10/24 03:15:31;;;;;;;16.80;11.20;;;;;;;3.05;79.38;101478.06;5062982;28;20468;-75
2021/10/24 03:17:57;;;;;;;13.37;11.37;;;;;;;3.00;79.87;101481.75;5074934;28;20464;-75
2021/10/24 03:20:24;;;;;;;19.53;12.53;;;;;;;3.03;80.21;101483.41;5082929;28;20488;-75
2021/10/24 03:22:52;;;;;;;15.00;10.80;;;;;;;3.05;79.81;101478.06;5081926;28;20511;-75
2021/10/24 03:25:19;;;;;;;20.57;11.20;;;;;;;3.07;79.25;101469.13;5081825;28;20471;-76
2021/10/24 03:27:45;;;;;;;24.37;10.53;;;;;;;3.08;79.13;101467.38;5082914;28;20420;-76
2021/10/24 03:30:12;;;;;;;18.17;10.50;;;;;;;3.10;79.01;101474.28;5067614;28;20500;-76
2021/10/24 03:32:38;;;;;;;18.00;10.67;;;;;;;3.08;79.47;101470.00;5075506;28;20456;-76
2021/10/24 03:35:05;;;;;;;15.87;10.33;;;;;;;3.08;79.31;101475.28;5082358;28;20900;-76
2021/10/24 03:37:32;;;;;;;14.97;11.00;;;;;;;3.03;79.07;101471.97;5081696;28;20542;-75
2021/10/24 03:40:00;;;;;;;13.90;10.03;;;;;;;3.04;79.11;101473.69;5065339;28;20470;-76
2021/10/24 03:42:26;;;;;;;20.33;11.60;;;;;;;2.97;79.78;101468.66;5071215;28;20554;-76
2021/10/24 03:44:53;;;;;;;17.63;10.33;;;;;;;2.92;80.06;101470.63;5063731;28;20509;-75
2021/10/24 03:47:20;;;;;;;15.60;10.77;;;;;;;2.95;79.83;101477.53;5073284;28;20505;-76
2021/10/24 03:49:47;;;;;;;13.97;10.87;;;;;;;3.04;78.96;101468.38;5082773;28;20563;-76
2021/10/24 03:52:13;;;;;;;14.10;10.40;;;;;;;2.93;79.06;101469.69;5079925;28;20475;-76
2021/10/24 03:54:40;;;;;;;12.07;9.50;;;;;;;2.96;79.17;101469.56;5080135;28;20475;-76
2021/10/24 03:57:08;;;;;;;15.00;10.87;;;;;;;2.93;79.43;101474.13;5061647;28;20551;-76
2021/10/24 03:59:35;;;;;;;19.30;11.20;;;;;;;2.99;79.55;101465.97;5077209;28;20499;-76
2021/10/24 04:02:01;;;;;;;14.77;10.73;;;;;;;2.87;79.55;101464.66;5079350;28;20570;-76
2021/10/24 04:04:28;;;;;;;13.53;9.90;;;;;;;2.73;79.43;101465.22;5073786;28;20932;-76
2021/10/24 04:06:55;;;;;;;16.40;11.00;;;;;;;2.82;79.46;101463.97;5067232;28;20488;-77
2021/10/24 04:09:21;;;;;;;14.40;10.40;;;;;;;2.77;79.41;101461.50;5067881;28;21005;-76
2021/10/24 04:11:48;;;;;;;12.67;10.30;;;;;;;2.77;79.46;101461.50;5068952;28;20543;-76
2021/10/24 04:14:17;;;;;;;13.53;10.93;;;;;;;2.80;79.40;101461.41;5073275;28;20489;-76
2021/10/24 04:16:44;;;;;;;16.90;10.47;;;;;;;2.80;79.07;101456.13;5072875;28;20478;-76
2021/10/24 04:19:11;;;;;;;17.50;11.40;;;;;;;2.76;79.46;101451.00;5067250;28;20507;-76
2021/10/24 04:21:37;;;;;;;12.77;9.80;;;;;;;2.78;79.77;101457.13;5067052;28;20587;-75
2021/10/24 04:24:04;;;;;;;13.30;9.83;;;;;;;2.77;79.92;101452.75;5076049;28;20479;-76
2021/10/24 04:26:32;;;;;;;14.13;10.53;;;;;;;2.77;79.58;101450.09;5065242;28;20492;-75
2021/10/24 04:28:58;;;;;;;17.40;11.33;;;;;;;2.73;79.41;101451.16;5065932;28;21059;-75
2021/10/24 04:31:26;;;;;;;18.77;12.03;;;;;;;2.72;79.60;101450.28;5064664;28;20496;-75
2021/10/24 04:33:53;;;;;;;11.73;9.83;;;;;;;2.74;79.63;101450.22;5073628;28;20444;-75
2021/10/24 04:36:20;;;;;;;12.40;9.73;;;;;;;2.73;79.40;101452.00;5082680;28;20503;-75
2021/10/24 04:38:46;;;;;;;13.37;10.40;;;;;;;2.72;79.33;101452.91;5071093;28;20480;-76
2021/10/24 04:41:13;;;;;;;13.87;10.03;;;;;;;2.73;79.40;101446.72;5077684;28;21316;-76
2021/10/24 04:43:39;;;;;;;18.03;11.33;;;;;;;2.71;79.74;101445.94;5083858;28;20861;-76
2021/10/24 04:46:06;;;;;;;13.50;11.00;;;;;;;2.71;80.28;101447.69;5082671;28;20507;-76
2021/10/24 04:48:34;;;;;;;18.70;11.77;;;;;;;2.72;80.47;101447.63;5067009;28;20461;-76
2021/10/24 04:51:01;;;;;;;15.27;11.57;;;;;;;2.71;80.50;101445.94;5065936;28;20471;-76
2021/10/24 04:53:29;;;;;;;14.70;11.10;;;;;;;2.75;80.34;101442.22;5065406;28;20893;-76
2021/10/24 04:55:56;;;;;;;17.43;11.20;;;;;;;2.74;80.24;101443.19;5081473;28;20467;-76
2021/10/24 04:58:22;;;;;;;19.00;10.50;;;;;;;2.70;80.58;101449.47;5078804;28;20957;-76
2021/10/24 05:00:49;;;;;;;14.63;11.90;;;;;;;2.68;80.82;101434.63;5065749;28;20484;-76
2021/10/24 05:03:16;;;;;;;12.57;11.00;;;;;;;2.64;81.80;101445.31;5053891;28;20483;-76
2021/10/24 05:05:46;;;;;;;20.23;11.83;;;;;;;2.70;81.65;101441.56;5071861;28;20465;-75
2021/10/24 05:08:13;;;;;;;16.90;11.87;;;;;;;2.68;81.89;101438.13;5066161;28;20441;-76
2021/10/24 05:10:41;;;;;;;17.87;12.67;;;;;;;2.64;82.31;101431.25;5065260;28;20563;-75
2021/10/24 05:13:08;;;;;;;17.57;10.23;;;;;;;2.68;82.03;101439.91;5067841;28;20517;-76
2021/10/24 05:15:34;;;;;;;15.73;11.87;;;;;;;2.67;81.78;101432.91;5077677;28;20571;-76
2021/10/24 05:18:01;;;;;;;16.73;11.30;;;;;;;2.62;81.33;101436.59;5075362;28;20484;-76
2021/10/24 05:20:28;;;;;;;29.73;12.83;;;;;;;2.62;81.96;101430.44;5064375;28;20543;-75
2021/10/24 05:22:56;;;;;;;24.37;12.33;;;;;;;2.61;82.17;101436.66;5065221;28;20461;-76
2021/10/24 05:25:23;;;;;;;20.50;12.60;;;;;;;2.63;82.55;101429.53;5074889;28;20455;-75
2021/10/24 05:27:54;;;;;;;17.60;13.63;;;;;;;2.58;82.96;101428.84;5084504;28;20475;-75
2021/10/24 05:30:21;;;;;;;18.63;12.40;;;;;;;2.61;82.82;101432.22;5077739;28;20534;-75
2021/10/24 05:32:47;;;;;;;17.70;12.60;;;;;;;2.57;82.82;101432.38;5075782;28;20521;-76
2021/10/24 05:35:14;;;;;;;20.43;12.50;;;;;;;2.60;82.38;101427.00;5077311;28;20519;-76
2021/10/24 05:37:41;;;;;;;18.40;13.07;;;;;;;2.57;81.54;101428.00;5084080;28;20476;-75
2021/10/24 05:40:11;;;;;;;19.93;12.00;;;;;;;2.58;81.42;101428.84;5076256;28;20446;-76
2021/10/24 05:42:38;;;;;;;23.37;11.17;;;;;;;2.51;81.03;101422.94;5078067;28;20455;-76
2021/10/24 05:45:06;;;;;;;19.07;13.77;;;;;;;2.85;82.57;101431.28;5073719;28;20458;-76
2021/10/24 05:47:32;;;;;;;18.17;11.67;;;;;;;2.75;81.77;101428.19;5077492;28;20453;-75
2021/10/24 05:49:59;;;;;;;16.30;11.73;;;;;;;2.74;81.17;101422.06;5064661;28;20884;-75
2021/10/24 05:52:26;;;;;;;22.37;13.53;;;;;;;2.66;80.91;101424.13;5063103;28;20483;-76
2021/10/24 05:54:53;;;;;;;17.57;13.70;;;;;;;2.60;81.18;101412.03;5064348;28;20472;-76
2021/10/24 05:57:21;;;;;;;22.50;12.63;;;;;;;2.59;81.43;101415.59;5062439;28;20519;-75
2021/10/24 05:59:47;;;;;;;22.70;15.20;;;;;;;2.55;82.09;101419.28;5064047;28;20996;-76
2021/10/24 06:02:14;;;;;;;17.20;12.73;;;;;;;2.57;82.26;101417.44;5062365;28;20500;-75
2021/10/24 06:04:40;;;;;;;26.33;13.87;;;;;;;2.66;82.11;101420.59;5063213;28;20457;-75
2021/10/24 06:07:07;;;;;;;18.60;12.87;;;;;;;2.64;82.13;101418.06;5062260;28;21084;-75
2021/10/24 06:09:41;;;;;;;17.50;13.37;;;;;;;2.54;81.99;101420.19;5065942;28;20524;-76
2021/10/24 06:12:12;;;;;;;16.60;13.53;;;;;;;2.62;81.82;101409.31;5061773;28;20995;-76
2021/10/24 06:14:41;;;;;;;18.60;13.30;;;;;;;2.56;82.14;101412.22;5070587;28;20772;-75
2021/10/24 06:17:08;;;;;;;23.70;14.97;;;;;;;2.58;82.17;101421.78;5068054;28;20503;-75
2021/10/24 06:19:35;;;;;;;18.90;12.73;;;;;;;2.66;82.05;101416.19;5073961;28;20944;-75
2021/10/24 06:22:01;;;;;;;18.93;12.17;;;;;;;2.74;81.92;101408.84;5057998;28;21104;-77
2021/10/24 06:24:28;;;;;;;18.80;12.70;;;;;;;2.84;81.64;101414.59;5063682;28;20495;-76
2021/10/24 06:26:54;;;;;;;18.83;13.30;;;;;;;2.87;81.24;101403.91;5052392;28;20502;-76
2021/10/24 06:29:21;;;;;;;17.90;13.40;;;;;;;2.93;80.95;101408.06;5061014;28;20549;-74
2021/10/24 06:31:49;;;;;;;16.53;12.83;;;;;;;2.90;80.85;101401.16;5068321;28;20480;-75
2021/10/24 06:34:16;;;;;;;18.40;14.10;;;;;;;2.87;81.24;101406.56;5068254;28;20477;-75
2021/10/24 06:36:42;;;;;;;19.90;13.80;;;;;;;2.99;80.82;101398.13;5068809;28;20471;-74
2021/10/24 06:39:10;;;;;;;21.27;14.70;;;;;;;3.00;80.63;101402.50;5067734;28;20537;-76
2021/10/24 06:41:36;;;;;;;19.20;13.00;;;;;;;3.03;80.44;101408.56;5048793;28;20477;-74
2021/10/24 06:44:03;;;;;;;17.73;13.27;;;;;;;3.10;79.95;101400.31;5061265;28;20481;-75
2021/10/24 06:46:30;;;;;;;19.77;12.73;;;;;;;3.19;79.62;101404.34;5043127;28;20592;-74
2021/10/24 06:48:58;;;;;;;16.33;12.57;;;;;;;3.29;79.95;101410.97;5060739;28;20522;-74
2021/10/24 06:51:24;;;;;;;19.43;12.33;;;;;;;3.35;79.47;101407.19;5045836;28;21053;-74
2021/10/24 06:53:51;;;;;;;22.17;13.80;;;;;;;3.41;79.00;101401.66;5060249;28;20477;-75
2021/10/24 06:56:18;;;;;;;27.97;14.50;;;;;;;3.58;79.26;101403.56;5055413;28;20537;-74
2021/10/24 06:58:44;;;;;;;15.63;12.20;;;;;;;3.64;78.76;101402.44;5055562;28;20477;-74
2021/10/24 07:01:11;;;;;;;19.90;13.93;;;;;;;3.80;78.53;101400.81;5052620;28;20481;-75
2021/10/24 07:03:37;;;;;;;17.07;13.60;;;;;;;3.89;79.35;101403.06;5052006;28;20495;-74
2021/10/24 07:06:05;;;;;;;18.47;13.40;;;;;;;4.03;79.33;101401.56;5040782;28;20481;-75
2021/10/24 07:08:32;;;;;;;17.83;14.60;;;;;;;4.09;79.23;101402.13;5042176;28;20446;-75
2021/10/24 07:10:59;;;;;;;19.50;13.73;;;;;;;4.18;79.36;101405.31;5049030;28;20572;-74
2021/10/24 07:13:25;;;;;;;16.63;13.80;;;;;;;4.27;79.09;101405.75;5059402;28;20519;-75
2021/10/24 07:15:52;;;;;;;24.87;14.80;;;;;;;4.40;79.01;101406.00;5067004;28;20531;-74
2021/10/24 07:18:20;;;;;;;15.67;13.10;;;;;;;4.59;79.08;101407.78;5081233;28;20470;-75
2021/10/24 07:20:46;;;;;;;22.23;13.00;;;;;;;5.18;81.73;101395.19;5077521;28;20483;-75
2021/10/24 07:23:14;;;;;;;18.93;14.67;;;;;;;7.29;85.04;101400.47;5081518;28;20443;-74
2021/10/24 07:25:41;;;;;;;17.17;14.40;;;;;;;9.63;85.73;101405.13;5064064;28;20500;-76
2021/10/24 07:28:08;;;;;;;20.73;17.03;;;;;;;11.35;67.95;101397.13;5058137;28;20864;-75
2021/10/24 07:30:35;;;;;;;16.60;14.50;;;;;;;12.14;72.39;101402.63;5054660;28;20520;-77
2021/10/24 07:33:01;;;;;;;15.00;11.73;;;;;;;13.60;73.73;101395.94;5059187;28;20457;-76
2021/10/24 07:35:28;;;;;;;11.63;10.40;;;;;;;14.84;55.18;101399.34;5060404;28;20491;-77
2021/10/24 07:37:55;;;;;;;8.77;7.40;;;;;;;15.75;52.27;101394.50;5063455;28;20521;-76
2021/10/24 07:40:23;;;;;;;11.10;6.90;;;;;;;16.25;43.96;101396.00;5057266;28;20480;-76
2021/10/24 07:42:50;;;;;;;8.80;6.87;;;;;;;16.58;41.65;101404.50;5058256;28;20444;-76
2021/10/24 07:45:17;;;;;;;6.80;6.17;;;;;;;16.96;39.84;101396.28;5067653;28;20455;-76
2021/10/24 07:47:45;;;;;;;7.23;6.50;;;;;;;17.13;39.70;101393.59;5064233;28;20448;-75
2021/10/24 07:50:12;;;;;;;7.10;6.27;;;;;;;17.62;38.32;101395.81;5064143;28;20538;-78
2021/10/24 07:52:39;;;;;;;6.73;6.03;;;;;;;17.59;38.19;101381.78;5061094;28;20429;-78
2021/10/24 07:55:06;;;;;;;7.37;5.90;;;;;;;17.98;37.70;101379.47;5060018;28;20436;-76
2021/10/24 07:57:34;;;;;;;9.60;6.63;;;;;;;17.25;37.94;101387.94;5067169;28;21113;-76
2021/10/24 08:00:01;;;;;;;10.33;6.80;;;;;;;18.00;36.81;101385.59;5065634;28;20468;-76
2021/10/24 08:02:28;;;;;;;9.60;6.37;;;;;;;18.96;35.21;101383.53;5055561;28;20515;-76
2021/10/24 08:04:54;;;;;;;12.70;6.90;;;;;;;17.92;37.77;101373.91;5060585;28;20473;-77
2021/10/24 08:07:21;;;;;;;7.73;6.93;;;;;;;18.93;36.16;101375.75;5075634;28;20542;-77
2021/10/24 08:09:47;;;;;;;9.57;8.30;;;;;;;19.66;33.76;101380.28;5070498;28;20545;-76
2021/10/24 08:12:14;;;;;;;9.23;7.10;;;;;;;19.08;35.38;101371.34;5073938;28;20483;-76
2021/10/24 08:14:42;;;;;;;8.90;8.10;;;;;;;18.40;35.93;101373.25;5045474;28;20788;-76
2021/10/24 08:17:09;;;;;;;8.80;7.90;;;;;;;19.04;36.09;101369.97;5069559;28;20669;-88
2021/10/24 08:19:36;;;;;;;10.77;6.87;;;;;;;19.21;34.70;101362.69;5071104;28;20437;-77
2021/10/24 08:22:04;;;;;;;7.63;6.90;;;;;;;17.85;37.28;101365.53;5066252;28;20484;-85
2021/10/24 08:24:31;;;;;;;8.47;6.63;;;;;;;17.29;38.39;101362.28;5057657;28;20496;-80
2021/10/24 08:26:57;;;;;;;8.10;6.60;;;;;;;17.48;38.70;101359.41;5060806;28;20504;-78
2021/10/24 08:29:24;;;;;;;9.53;6.60;;;;;;;15.96;42.03;101358.38;5062602;28;20487;-75
2021/10/24 08:31:54;;;;;;;9.13;7.47;;;;;;;15.97;41.70;101360.06;5066072;28;20503;-77
2021/10/24 08:34:22;;;;;;;11.60;7.03;;;;;;;16.93;40.17;101352.38;5062757;28;20457;-75
2021/10/24 08:36:49;;;;;;;9.37;7.00;;;;;;;17.80;38.00;101354.34;5069733;28;20920;-74
2021/10/24 08:39:16;;;;;;;7.73;7.00;;;;;;;18.19;37.65;101346.63;5070374;28;20517;-76
2021/10/24 08:41:46;;;;;;;8.47;7.67;;;;;;;18.65;36.13;101342.66;5051208;28;20511;-74
2021/10/24 08:44:13;;;;;;;9.40;6.60;;;;;;;18.22;37.04;101348.13;5073222;28;20459;-74
2021/10/24 08:46:40;;;;;;;10.00;6.83;;;;;;;18.36;37.62;101341.25;5066623;28;20516;-74
2021/10/24 08:49:09;;;;;;;8.80;7.93;;;;;;;19.27;35.90;101334.91;5062887;28;20512;-74
2021/10/24 08:51:36;;;;;;;9.23;7.23;;;;;;;18.90;36.86;101327.31;5070723;28;20968;-74
2021/10/24 08:54:04;;;;;;;9.33;6.80;;;;;;;19.32;35.57;101332.53;5068085;28;20479;-76
2021/10/24 08:56:32;;;;;;;10.63;7.53;;;;;;;18.68;36.82;101329.63;5056396;28;20466;-76
2021/10/24 08:58:59;;;;;;;10.63;7.53;;;;;;;17.45;39.03;101332.69;5079267;28;20473;-75
2021/10/24 09:01:26;;;;;;;6.73;6.13;;;;;;;14.87;44.59;101329.94;5061080;28;20560;-75
2021/10/24 09:04:08;;;;;;;8.30;7.00;;;;;;;14.18;46.79;101320.03;5053896;28;20544;-74
2021/10/24 09:06:45;;;;;;;7.87;6.40;;;;;;;13.56;48.21;101325.50;5059568;28;20573;-74
2021/10/24 09:09:13;;;;;;;9.10;7.23;;;;;;;15.94;44.63;101323.47;5060896;28;20811;-75
2021/10/24 09:11:41;;;;;;;11.30;7.83;;;;;;;17.82;39.12;101315.28;5071105;28;20537;-76
2021/10/24 09:14:08;;;;;;;12.83;8.57;;;;;;;17.59;39.98;101312.31;5064228;28;20480;-74
2021/10/24 09:16:52;;;;;;;10.40;6.20;;;;;;;18.30;38.96;101320.22;5061666;28;20547;-75
2021/10/24 09:19:21;;;;;;;9.80;6.87;;;;;;;18.84;38.04;101315.28;5063430;28;20492;-74
2021/10/24 09:21:47;;;;;;;10.93;6.47;;;;;;;18.57;38.04;101303.69;5062710;28;20478;-75
2021/10/24 09:24:14;;;;;;;6.53;5.83;;;;;;;19.57;36.43;101297.22;5062538;28;20433;-74
2021/10/24 09:26:41;;;;;;;7.83;5.90;;;;;;;19.18;36.64;101292.56;5061612;28;20512;-74
2021/10/24 09:29:10;;;;;;;9.67;6.10;;;;;;;20.26;35.36;101297.47;5062862;28;20429;-74
2021/10/24 09:31:40;;;;;;;7.17;6.10;;;;;;;20.78;34.37;101300.50;5060566;28;20515;-73
2021/10/24 09:34:12;;;;;;;5.77;5.20;;;;;;;21.72;33.10;101281.94;5055295;28;20513;-75
2021/10/24 09:36:50;;;;;;;10.30;7.10;;;;;;;22.58;31.33;101286.72;5059126;28;20504;-74
2021/10/24 09:39:16;;;;;;;7.20;4.37;;;;;;;17.69;36.23;101286.00;5074516;28;20446;-74
2021/10/24 09:41:43;;;;;;;5.40;3.40;;;;;;;15.23;41.93;101283.53;5055765;28;20480;-75
2021/10/24 09:44:14;;;;;;;6.67;3.43;;;;;;;15.57;43.11;101278.47;5055849;28;21018;-72
2021/10/24 09:46:59;;;;;;;6.97;3.40;;;;;;;16.25;42.17;101279.97;5053364;28;20547;-74
2021/10/24 09:49:27;;;;;;;4.20;3.23;;;;;;;13.90;46.44;101282.19;5060687;28;20471;-74
2021/10/24 09:51:55;;;;;;;6.97;3.30;;;;;;;14.02;45.24;101277.56;5064155;28;20499;-76
2021/10/24 09:54:22;;;;;;;4.70;2.47;;;;;;;14.47;44.47;101270.81;5070791;28;20504;-77
2021/10/24 09:56:50;;;;;;;4.87;3.07;;;;;;;15.43;43.63;101282.50;5072524;28;20492;-78
2021/10/24 09:59:18;;;;;;;5.80;2.57;;;;;;;14.69;44.72;101272.44;5053102;28;20973;-75
2021/10/24 10:01:47;;;;;;;3.90;2.50;;;;;;;15.31;42.74;101272.88;5046162;28;21065;-77
2021/10/24 10:04:13;;;;;;;5.93;3.20;;;;;;;15.74;40.61;101267.88;5053819;28;20475;-77
2021/10/24 10:06:43;;;;;;;4.40;2.47;;;;;;;16.24;40.95;101266.63;5061942;28;20483;-77
2021/10/24 10:09:12;;;;;;;4.80;2.83;;;;;;;14.64;42.95;101253.16;5061979;28;20929;-79
2021/10/24 10:11:41;;;;;;;3.70;2.50;;;;;;;15.39;41.70;101261.38;5061515;28;20488;-78
2021/10/24 10:14:10;;;;;;;4.67;2.23;;;;;;;15.04;42.50;101261.03;5066152;28;20956;-78
2021/10/24 10:16:39;;;;;;;5.97;3.07;;;;;;;14.40;44.06;101251.69;5058982;28;20899;-77
2021/10/24 10:19:09;;;;;;;3.40;2.27;;;;;;;16.38;39.65;101247.22;5062406;28;20437;-78
2021/10/24 10:21:38;;;;;;;7.23;3.17;;;;;;;15.54;40.93;101240.19;5059833;28;20501;-78
2021/10/24 10:24:06;;;;;;;7.00;2.47;;;;;;;15.75;40.77;101239.97;5052050;28;20438;-76
2021/10/24 10:26:40;;;;;;;5.90;2.50;;;;;;;13.97;43.99;101238.63;5048120;28;20500;-77
2021/10/24 10:29:08;;;;;;;4.70;2.37;;;;;;;14.07;43.89;101234.13;5042887;28;20480;-77
2021/10/24 10:31:35;;;;;;;6.00;2.47;;;;;;;14.29;44.20;101231.16;5039540;28;20519;-77
2021/10/24 10:34:05;;;;;;;5.43;2.00;;;;;;;14.36;43.26;101231.47;5042511;28;20469;-76
2021/10/24 10:36:57;;;;;;;6.53;2.60;;;;;;;15.14;43.25;101234.09;5041424;28;20474;-77
2021/10/24 10:39:40;;;;;;;6.80;2.17;;;;;;;15.03;41.07;101221.66;5041829;28;20434;-76
2021/10/24 10:42:43;;;;;;;3.93;2.47;;;;;;;14.68;42.98;101217.72;5052274;28;20511;-75
2021/10/24 10:45:21;;;;;;;5.43;2.67;;;;;;;15.15;41.30;101211.53;5050034;28;20449;-76
2021/10/24 10:47:52;;;;;;;8.30;2.70;;;;;;;14.01;44.99;101197.03;5046710;28;20488;-76
2021/10/24 10:50:43;;;;;;;6.27;2.67;;;;;;;13.99;44.86;101204.38;5041034;28;20484;-75
2021/10/24 10:53:11;;;;;;;6.40;2.23;;;;;;;14.56;42.98;101205.38;5050651;28;20456;-75
2021/10/24 10:56:16;;;;;;;3.93;2.10;;;;;;;14.56;43.61;101205.38;5061104;28;20957;-76
2021/10/24 10:58:44;;;;;;;5.00;2.33;;;;;;;15.34;42.01;101205.22;5018476;28;20457;-76
2021/10/24 11:01:20;;;;;;;4.83;2.10;;;;;;;16.11;40.57;101207.63;5039711;28;20512;-76
2021/10/24 11:03:48;;;;;;;7.07;2.80;;;;;;;15.04;43.08;101201.78;5044729;28;20474;-76
2021/10/24 11:06:44;;;;;;;4.70;1.90;;;;;;;15.54;40.83;101200.59;5040468;28;20520;-75
2021/10/24 11:09:12;;;;;;;3.40;1.83;;;;;;;14.89;40.98;101195.16;5028703;28;20525;-76
2021/10/24 11:11:57;;;;;;;4.43;1.90;;;;;;;14.88;42.29;101204.25;5040597;28;20509;-75
2021/10/24 11:14:45;;;;;;;3.50;1.77;;;;;;;15.30;41.00;101190.34;5078585;28;20486;-76
2021/10/24 11:17:35;;;;;;;4.27;2.27;;;;;;;15.37;39.85;101188.75;5079931;28;20476;-77
2021/10/24 11:20:19;;;;;;;6.40;2.20;;;;;;;16.39;39.03;101176.06;5081596;28;21031;-76
2021/10/24 11:22:51;;;;;;;3.07;2.13;;;;;;;16.43;38.47;101185.50;5075565;28;20457;-76
2021/10/24 11:25:26;;;;;;;2.73;1.83;;;;;;;14.55;41.33;101184.88;5060662;28;21140;-77